sensor_id;sensor_type;location;lat;lon;timestamp;P1;durP1;ratioP1;P2;durP2;ratioP2
45764;SDS011;31474;45.332;10.230;2023-02-18T00:02:12;34.30;;;20.40;;
45764;SDS011;31474;45.332;10.230;2023-02-18T00:04:38;38.10;;;21.00;;
45764;SDS011;31474;45.332;10.230;2023-02-18T00:07:03;43.63;;;21.95;;
45764;SDS011;31474;45.332;10.230;2023-02-18T00:09:29;35.22;;;20.83;;
45764;SDS011;31474;45.332;10.230;2023-02-18T00:11:55;33.53;;;20.85;;
45764;SDS011;31474;45.332;10.230;2023-02-18T00:14:20;36.22;;;20.98;;
45764;SDS011;31474;45.332;10.230;2023-02-18T00:16:46;40.83;;;21.42;;
45764;SDS011;31474;45.332;10.230;2023-02-18T00:19:13;32.22;;;19.15;;
45764;SDS011;31474;45.332;10.230;2023-02-18T00:21:41;33.70;;;19.60;;
45764;SDS011;31474;45.332;10.230;2023-02-18T00:24:07;34.53;;;20.23;;
45764;SDS011;31474;45.332;10.230;2023-02-18T00:26:34;33.10;;;19.27;;
45764;SDS011;31474;45.332;10.230;2023-02-18T00:29:00;34.75;;;21.20;;
45764;SDS011;31474;45.332;10.230;2023-02-18T00:31:27;33.35;;;19.95;;
45764;SDS011;31474;45.332;10.230;2023-02-18T00:33:55;31.10;;;20.02;;
45764;SDS011;31474;45.332;10.230;2023-02-18T00:36:22;29.33;;;19.15;;
45764;SDS011;31474;45.332;10.230;2023-02-18T00:38:49;34.78;;;19.27;;
45764;SDS011;31474;45.332;10.230;2023-02-18T00:41:16;37.72;;;21.40;;
45764;SDS011;31474;45.332;10.230;2023-02-18T00:43:43;31.92;;;19.80;;
45764;SDS011;31474;45.332;10.230;2023-02-18T00:46:08;36.15;;;21.80;;
45764;SDS011;31474;45.332;10.230;2023-02-18T00:48:34;33.15;;;20.65;;
45764;SDS011;31474;45.332;10.230;2023-02-18T00:51:01;36.20;;;20.50;;
45764;SDS011;31474;45.332;10.230;2023-02-18T00:53:29;38.47;;;21.60;;
45764;SDS011;31474;45.332;10.230;2023-02-18T00:55:55;36.70;;;22.33;;
45764;SDS011;31474;45.332;10.230;2023-02-18T00:58:21;45.65;;;24.38;;
45764;SDS011;31474;45.332;10.230;2023-02-18T01:00:47;38.85;;;23.63;;
45764;SDS011;31474;45.332;10.230;2023-02-18T01:03:13;41.72;;;25.23;;
45764;SDS011;31474;45.332;10.230;2023-02-18T01:05:39;36.78;;;23.48;;
45764;SDS011;31474;45.332;10.230;2023-02-18T01:08:06;46.45;;;26.35;;
45764;SDS011;31474;45.332;10.230;2023-02-18T01:10:32;43.53;;;28.17;;
45764;SDS011;31474;45.332;10.230;2023-02-18T01:12:59;45.60;;;25.52;;
45764;SDS011;31474;45.332;10.230;2023-02-18T01:15:25;47.67;;;25.88;;
45764;SDS011;31474;45.332;10.230;2023-02-18T01:17:50;40.65;;;23.95;;
45764;SDS011;31474;45.332;10.230;2023-02-18T01:20:16;37.55;;;24.33;;
45764;SDS011;31474;45.332;10.230;2023-02-18T01:22:42;44.65;;;25.52;;
45764;SDS011;31474;45.332;10.230;2023-02-18T01:25:08;42.08;;;25.38;;
45764;SDS011;31474;45.332;10.230;2023-02-18T01:27:34;44.35;;;25.75;;
45764;SDS011;31474;45.332;10.230;2023-02-18T01:30:00;38.33;;;25.08;;
45764;SDS011;31474;45.332;10.230;2023-02-18T01:32:27;39.35;;;23.55;;
45764;SDS011;31474;45.332;10.230;2023-02-18T01:34:53;40.05;;;22.35;;
45764;SDS011;31474;45.332;10.230;2023-02-18T01:37:18;34.05;;;22.05;;
45764;SDS011;31474;45.332;10.230;2023-02-18T01:39:44;37.78;;;23.27;;
45764;SDS011;31474;45.332;10.230;2023-02-18T01:42:19;37.50;;;21.95;;
45764;SDS011;31474;45.332;10.230;2023-02-18T01:44:47;34.30;;;21.77;;
45764;SDS011;31474;45.332;10.230;2023-02-18T01:47:14;31.83;;;21.10;;
45764;SDS011;31474;45.332;10.230;2023-02-18T01:49:40;37.53;;;22.38;;
45764;SDS011;31474;45.332;10.230;2023-02-18T01:52:17;35.63;;;20.08;;
45764;SDS011;31474;45.332;10.230;2023-02-18T01:54:51;31.52;;;20.45;;
45764;SDS011;31474;45.332;10.230;2023-02-18T01:57:20;37.75;;;22.92;;
45764;SDS011;31474;45.332;10.230;2023-02-18T02:02:24;42.83;;;24.02;;
45764;SDS011;31474;45.332;10.230;2023-02-18T02:04:52;39.83;;;22.55;;
45764;SDS011;31474;45.332;10.230;2023-02-18T02:07:18;45.70;;;25.67;;
45764;SDS011;31474;45.332;10.230;2023-02-18T02:09:46;54.20;;;26.05;;
45764;SDS011;31474;45.332;10.230;2023-02-18T02:29:24;73.07;;;35.33;;
45764;SDS011;31474;45.332;10.230;2023-02-18T02:35:17;74.65;;;40.22;;
45764;SDS011;31474;45.332;10.230;2023-02-18T02:43:33;104.88;;;44.67;;
45764;SDS011;31474;45.332;10.230;2023-02-18T02:46:20;75.70;;;40.50;;
45764;SDS011;31474;45.332;10.230;2023-02-18T02:51:36;80.63;;;39.50;;
45764;SDS011;31474;45.332;10.230;2023-02-18T02:54:14;73.40;;;38.92;;
45764;SDS011;31474;45.332;10.230;2023-02-18T02:56:40;81.43;;;42.35;;
45764;SDS011;31474;45.332;10.230;2023-02-18T02:59:07;97.53;;;42.72;;
45764;SDS011;31474;45.332;10.230;2023-02-18T03:13:00;97.95;;;43.05;;
45764;SDS011;31474;45.332;10.230;2023-02-18T03:15:49;69.15;;;36.92;;
45764;SDS011;31474;45.332;10.230;2023-02-18T03:18:42;97.78;;;44.28;;
45764;SDS011;31474;45.332;10.230;2023-02-18T03:21:23;85.78;;;39.72;;
45764;SDS011;31474;45.332;10.230;2023-02-18T03:24:06;84.55;;;40.72;;
45764;SDS011;31474;45.332;10.230;2023-02-18T03:26:31;101.45;;;46.42;;
45764;SDS011;31474;45.332;10.230;2023-02-18T03:29:02;101.80;;;42.85;;
45764;SDS011;31474;45.332;10.230;2023-02-18T03:31:31;78.20;;;38.13;;
45764;SDS011;31474;45.332;10.230;2023-02-18T03:34:09;88.28;;;39.25;;
45764;SDS011;31474;45.332;10.230;2023-02-18T03:36:37;64.32;;;36.83;;
45764;SDS011;31474;45.332;10.230;2023-02-18T03:41:40;70.32;;;38.38;;
45764;SDS011;31474;45.332;10.230;2023-02-18T03:44:06;86.72;;;42.90;;
45764;SDS011;31474;45.332;10.230;2023-02-18T03:46:33;93.68;;;41.97;;
45764;SDS011;31474;45.332;10.230;2023-02-18T03:49:00;71.35;;;39.10;;
45764;SDS011;31474;45.332;10.230;2023-02-18T03:51:26;84.97;;;38.63;;
45764;SDS011;31474;45.332;10.230;2023-02-18T03:53:52;83.88;;;37.75;;
45764;SDS011;31474;45.332;10.230;2023-02-18T03:56:18;77.80;;;37.55;;
45764;SDS011;31474;45.332;10.230;2023-02-18T03:58:45;82.07;;;40.80;;
45764;SDS011;31474;45.332;10.230;2023-02-18T04:01:10;89.60;;;38.80;;
45764;SDS011;31474;45.332;10.230;2023-02-18T04:03:36;91.90;;;41.40;;
45764;SDS011;31474;45.332;10.230;2023-02-18T04:06:02;78.80;;;37.08;;
45764;SDS011;31474;45.332;10.230;2023-02-18T04:08:28;83.53;;;37.38;;
45764;SDS011;31474;45.332;10.230;2023-02-18T04:10:53;75.03;;;35.55;;
45764;SDS011;31474;45.332;10.230;2023-02-18T04:13:19;95.15;;;37.35;;
45764;SDS011;31474;45.332;10.230;2023-02-18T04:15:45;85.65;;;35.72;;
45764;SDS011;31474;45.332;10.230;2023-02-18T04:18:13;80.38;;;36.17;;
45764;SDS011;31474;45.332;10.230;2023-02-18T04:20:39;87.35;;;39.22;;
45764;SDS011;31474;45.332;10.230;2023-02-18T04:23:04;78.40;;;36.25;;
45764;SDS011;31474;45.332;10.230;2023-02-18T04:25:30;93.85;;;35.63;;
45764;SDS011;31474;45.332;10.230;2023-02-18T04:27:56;92.70;;;37.47;;
45764;SDS011;31474;45.332;10.230;2023-02-18T04:30:22;77.97;;;34.47;;
45764;SDS011;31474;45.332;10.230;2023-02-18T04:32:48;74.22;;;34.58;;
45764;SDS011;31474;45.332;10.230;2023-02-18T04:35:13;87.38;;;36.75;;
45764;SDS011;31474;45.332;10.230;2023-02-18T04:37:39;97.00;;;37.10;;
45764;SDS011;31474;45.332;10.230;2023-02-18T04:40:05;97.10;;;38.05;;
45764;SDS011;31474;45.332;10.230;2023-02-18T04:42:31;102.97;;;36.17;;
45764;SDS011;31474;45.332;10.230;2023-02-18T04:44:57;93.57;;;36.92;;
45764;SDS011;31474;45.332;10.230;2023-02-18T04:47:23;98.03;;;41.10;;
45764;SDS011;31474;45.332;10.230;2023-02-18T04:49:48;113.38;;;39.92;;
45764;SDS011;31474;45.332;10.230;2023-02-18T04:52:14;113.75;;;40.22;;
45764;SDS011;31474;45.332;10.230;2023-02-18T04:54:40;112.63;;;40.60;;
45764;SDS011;31474;45.332;10.230;2023-02-18T04:57:05;125.78;;;42.55;;
45764;SDS011;31474;45.332;10.230;2023-02-18T04:59:31;107.93;;;41.03;;
45764;SDS011;31474;45.332;10.230;2023-02-18T05:01:57;91.45;;;38.25;;
45764;SDS011;31474;45.332;10.230;2023-02-18T05:04:22;104.65;;;41.85;;
45764;SDS011;31474;45.332;10.230;2023-02-18T05:06:48;84.93;;;39.55;;
45764;SDS011;31474;45.332;10.230;2023-02-18T05:09:13;106.45;;;42.90;;
45764;SDS011;31474;45.332;10.230;2023-02-18T05:11:39;105.70;;;43.15;;
45764;SDS011;31474;45.332;10.230;2023-02-18T05:14:05;109.18;;;43.30;;
45764;SDS011;31474;45.332;10.230;2023-02-18T05:16:31;114.13;;;46.70;;
45764;SDS011;31474;45.332;10.230;2023-02-18T05:18:57;95.18;;;44.28;;
45764;SDS011;31474;45.332;10.230;2023-02-18T05:21:22;104.03;;;40.53;;
45764;SDS011;31474;45.332;10.230;2023-02-18T05:23:48;101.72;;;44.33;;
45764;SDS011;31474;45.332;10.230;2023-02-18T05:26:14;116.90;;;45.38;;
45764;SDS011;31474;45.332;10.230;2023-02-18T05:28:39;101.28;;;42.90;;
45764;SDS011;31474;45.332;10.230;2023-02-18T05:31:05;112.18;;;45.05;;
45764;SDS011;31474;45.332;10.230;2023-02-18T05:33:30;108.43;;;41.97;;
45764;SDS011;31474;45.332;10.230;2023-02-18T05:35:56;95.88;;;42.15;;
45764;SDS011;31474;45.332;10.230;2023-02-18T05:38:22;110.88;;;42.70;;
45764;SDS011;31474;45.332;10.230;2023-02-18T05:40:48;96.63;;;44.03;;
45764;SDS011;31474;45.332;10.230;2023-02-18T05:43:13;92.93;;;39.20;;
45764;SDS011;31474;45.332;10.230;2023-02-18T05:45:40;97.13;;;42.95;;
45764;SDS011;31474;45.332;10.230;2023-02-18T05:48:05;101.32;;;43.17;;
45764;SDS011;31474;45.332;10.230;2023-02-18T05:50:31;107.35;;;47.25;;
45764;SDS011;31474;45.332;10.230;2023-02-18T05:52:57;124.25;;;46.20;;
45764;SDS011;31474;45.332;10.230;2023-02-18T05:55:23;125.35;;;50.15;;
45764;SDS011;31474;45.332;10.230;2023-02-18T05:57:48;120.97;;;46.22;;
45764;SDS011;31474;45.332;10.230;2023-02-18T06:00:14;104.68;;;41.97;;
45764;SDS011;31474;45.332;10.230;2023-02-18T06:02:40;107.63;;;44.10;;
45764;SDS011;31474;45.332;10.230;2023-02-18T06:05:06;108.35;;;45.75;;
45764;SDS011;31474;45.332;10.230;2023-02-18T06:07:32;140.25;;;45.97;;
45764;SDS011;31474;45.332;10.230;2023-02-18T06:09:58;130.88;;;46.22;;
45764;SDS011;31474;45.332;10.230;2023-02-18T06:12:24;117.13;;;46.17;;
45764;SDS011;31474;45.332;10.230;2023-02-18T06:14:50;103.88;;;47.08;;
45764;SDS011;31474;45.332;10.230;2023-02-18T06:17:16;123.85;;;49.20;;
45764;SDS011;31474;45.332;10.230;2023-02-18T06:19:43;140.75;;;47.03;;
45764;SDS011;31474;45.332;10.230;2023-02-18T06:22:09;96.28;;;46.00;;
45764;SDS011;31474;45.332;10.230;2023-02-18T06:24:35;113.18;;;46.03;;
45764;SDS011;31474;45.332;10.230;2023-02-18T06:27:02;117.32;;;46.55;;
45764;SDS011;31474;45.332;10.230;2023-02-18T06:29:28;109.45;;;44.95;;
45764;SDS011;31474;45.332;10.230;2023-02-18T06:31:55;111.53;;;44.60;;
45764;SDS011;31474;45.332;10.230;2023-02-18T06:34:23;103.30;;;44.15;;
45764;SDS011;31474;45.332;10.230;2023-02-18T06:36:50;109.72;;;46.00;;
45764;SDS011;31474;45.332;10.230;2023-02-18T06:39:16;92.20;;;44.67;;
45764;SDS011;31474;45.332;10.230;2023-02-18T06:41:42;108.80;;;45.40;;
45764;SDS011;31474;45.332;10.230;2023-02-18T06:44:08;96.20;;;45.42;;
45764;SDS011;31474;45.332;10.230;2023-02-18T06:46:33;97.95;;;45.08;;
45764;SDS011;31474;45.332;10.230;2023-02-18T06:48:59;99.60;;;44.47;;
45764;SDS011;31474;45.332;10.230;2023-02-18T06:51:25;98.85;;;45.15;;
45764;SDS011;31474;45.332;10.230;2023-02-18T06:53:50;107.65;;;46.33;;
45764;SDS011;31474;45.332;10.230;2023-02-18T06:56:16;97.25;;;43.63;;
45764;SDS011;31474;45.332;10.230;2023-02-18T06:58:42;108.65;;;45.22;;
45764;SDS011;31474;45.332;10.230;2023-02-18T07:01:07;89.85;;;43.10;;
45764;SDS011;31474;45.332;10.230;2023-02-18T07:03:33;101.15;;;44.20;;
45764;SDS011;31474;45.332;10.230;2023-02-18T07:05:59;90.32;;;44.50;;
45764;SDS011;31474;45.332;10.230;2023-02-18T07:08:25;112.50;;;46.63;;
45764;SDS011;31474;45.332;10.230;2023-02-18T07:10:51;95.53;;;41.92;;
45764;SDS011;31474;45.332;10.230;2023-02-18T07:13:17;97.03;;;44.03;;
45764;SDS011;31474;45.332;10.230;2023-02-18T07:15:42;116.55;;;46.65;;
45764;SDS011;31474;45.332;10.230;2023-02-18T07:18:08;103.40;;;46.50;;
45764;SDS011;31474;45.332;10.230;2023-02-18T07:20:34;111.30;;;45.88;;
45764;SDS011;31474;45.332;10.230;2023-02-18T07:23:00;112.82;;;47.85;;
45764;SDS011;31474;45.332;10.230;2023-02-18T07:25:25;115.68;;;45.65;;
45764;SDS011;31474;45.332;10.230;2023-02-18T07:27:51;99.60;;;45.13;;
45764;SDS011;31474;45.332;10.230;2023-02-18T07:30:17;101.63;;;46.58;;
45764;SDS011;31474;45.332;10.230;2023-02-18T07:32:44;95.60;;;44.17;;
45764;SDS011;31474;45.332;10.230;2023-02-18T07:35:10;97.85;;;43.97;;
45764;SDS011;31474;45.332;10.230;2023-02-18T07:37:39;91.93;;;41.65;;
45764;SDS011;31474;45.332;10.230;2023-02-18T07:40:08;90.38;;;41.17;;
45764;SDS011;31474;45.332;10.230;2023-02-18T07:42:36;110.22;;;45.90;;
45764;SDS011;31474;45.332;10.230;2023-02-18T07:45:02;109.53;;;44.35;;
45764;SDS011;31474;45.332;10.230;2023-02-18T07:47:27;99.90;;;45.92;;
45764;SDS011;31474;45.332;10.230;2023-02-18T07:49:53;105.38;;;43.42;;
45764;SDS011;31474;45.332;10.230;2023-02-18T07:52:18;111.45;;;46.00;;
45764;SDS011;31474;45.332;10.230;2023-02-18T07:54:44;110.88;;;43.22;;
45764;SDS011;31474;45.332;10.230;2023-02-18T07:57:10;122.10;;;47.80;;
45764;SDS011;31474;45.332;10.230;2023-02-18T07:59:35;98.50;;;44.80;;
45764;SDS011;31474;45.332;10.230;2023-02-18T08:02:01;108.82;;;45.80;;
45764;SDS011;31474;45.332;10.230;2023-02-18T08:04:27;101.80;;;47.33;;
45764;SDS011;31474;45.332;10.230;2023-02-18T08:06:53;104.88;;;45.67;;
45764;SDS011;31474;45.332;10.230;2023-02-18T08:09:19;90.15;;;42.97;;
45764;SDS011;31474;45.332;10.230;2023-02-18T08:11:44;102.15;;;46.47;;
45764;SDS011;31474;45.332;10.230;2023-02-18T08:14:10;103.03;;;45.78;;
45764;SDS011;31474;45.332;10.230;2023-02-18T08:16:36;112.88;;;46.63;;
45764;SDS011;31474;45.332;10.230;2023-02-18T08:19:01;109.57;;;47.60;;
45764;SDS011;31474;45.332;10.230;2023-02-18T08:21:28;100.88;;;46.88;;
45764;SDS011;31474;45.332;10.230;2023-02-18T08:23:56;105.50;;;46.72;;
45764;SDS011;31474;45.332;10.230;2023-02-18T08:26:22;112.22;;;47.53;;
45764;SDS011;31474;45.332;10.230;2023-02-18T08:28:48;112.95;;;46.65;;
45764;SDS011;31474;45.332;10.230;2023-02-18T08:31:18;126.30;;;51.35;;
45764;SDS011;31474;45.332;10.230;2023-02-18T08:33:45;115.38;;;49.67;;
45764;SDS011;31474;45.332;10.230;2023-02-18T08:36:11;119.00;;;50.33;;
45764;SDS011;31474;45.332;10.230;2023-02-18T08:38:37;94.82;;;52.20;;
45764;SDS011;31474;45.332;10.230;2023-02-18T08:41:03;107.28;;;50.63;;
45764;SDS011;31474;45.332;10.230;2023-02-18T08:43:30;117.95;;;53.45;;
45764;SDS011;31474;45.332;10.230;2023-02-18T08:45:56;119.00;;;53.33;;
45764;SDS011;31474;45.332;10.230;2023-02-18T08:48:22;121.18;;;53.03;;
45764;SDS011;31474;45.332;10.230;2023-02-18T08:50:48;129.32;;;59.95;;
45764;SDS011;31474;45.332;10.230;2023-02-18T08:53:14;133.73;;;61.25;;
45764;SDS011;31474;45.332;10.230;2023-02-18T08:55:41;125.13;;;55.70;;
45764;SDS011;31474;45.332;10.230;2023-02-18T08:58:07;127.93;;;57.17;;
45764;SDS011;31474;45.332;10.230;2023-02-18T09:00:33;125.90;;;56.65;;
45764;SDS011;31474;45.332;10.230;2023-02-18T09:03:02;123.55;;;59.15;;
45764;SDS011;31474;45.332;10.230;2023-02-18T09:05:28;107.72;;;54.08;;
45764;SDS011;31474;45.332;10.230;2023-02-18T09:07:54;140.05;;;65.63;;
45764;SDS011;31474;45.332;10.230;2023-02-18T09:10:19;136.93;;;61.60;;
45764;SDS011;31474;45.332;10.230;2023-02-18T09:12:45;107.38;;;54.88;;
45764;SDS011;31474;45.332;10.230;2023-02-18T09:15:11;129.55;;;61.78;;
45764;SDS011;31474;45.332;10.230;2023-02-18T09:17:36;134.32;;;61.08;;
45764;SDS011;31474;45.332;10.230;2023-02-18T09:20:02;130.02;;;62.45;;
45764;SDS011;31474;45.332;10.230;2023-02-18T09:22:28;140.85;;;60.67;;
45764;SDS011;31474;45.332;10.230;2023-02-18T09:24:54;138.75;;;60.42;;
45764;SDS011;31474;45.332;10.230;2023-02-18T09:27:20;130.02;;;57.35;;
45764;SDS011;31474;45.332;10.230;2023-02-18T09:29:46;126.70;;;60.13;;
45764;SDS011;31474;45.332;10.230;2023-02-18T09:32:12;143.32;;;58.58;;
45764;SDS011;31474;45.332;10.230;2023-02-18T09:34:38;113.97;;;55.13;;
45764;SDS011;31474;45.332;10.230;2023-02-18T09:37:03;88.93;;;49.65;;
45764;SDS011;31474;45.332;10.230;2023-02-18T09:39:29;123.30;;;57.45;;
45764;SDS011;31474;45.332;10.230;2023-02-18T09:41:58;94.00;;;51.75;;
45764;SDS011;31474;45.332;10.230;2023-02-18T09:44:28;122.97;;;56.17;;
45764;SDS011;31474;45.332;10.230;2023-02-18T09:47:02;93.93;;;50.40;;
45764;SDS011;31474;45.332;10.230;2023-02-18T09:49:34;127.03;;;60.83;;
45764;SDS011;31474;45.332;10.230;2023-02-18T09:52:10;79.55;;;46.10;;
45764;SDS011;31474;45.332;10.230;2023-02-18T09:54:38;92.93;;;52.55;;
45764;SDS011;31474;45.332;10.230;2023-02-18T09:57:05;97.80;;;50.05;;
45764;SDS011;31474;45.332;10.230;2023-02-18T09:59:39;92.47;;;51.38;;
45764;SDS011;31474;45.332;10.230;2023-02-18T10:02:08;99.20;;;53.03;;
45764;SDS011;31474;45.332;10.230;2023-02-18T10:04:39;107.03;;;54.95;;
45764;SDS011;31474;45.332;10.230;2023-02-18T10:07:07;119.85;;;58.05;;
45764;SDS011;31474;45.332;10.230;2023-02-18T10:10:50;100.60;;;49.00;;
45764;SDS011;31474;45.332;10.230;2023-02-18T10:13:14;99.50;;;50.67;;
45764;SDS011;31474;45.332;10.230;2023-02-18T10:15:42;105.25;;;53.13;;
45764;SDS011;31474;45.332;10.230;2023-02-18T10:18:51;99.78;;;53.22;;
45764;SDS011;31474;45.332;10.230;2023-02-18T10:21:06;99.07;;;50.30;;
45764;SDS011;31474;45.332;10.230;2023-02-18T10:23:37;96.07;;;48.58;;
45764;SDS011;31474;45.332;10.230;2023-02-18T10:26:06;85.35;;;47.55;;
45764;SDS011;31474;45.332;10.230;2023-02-18T10:28:37;100.47;;;51.35;;
45764;SDS011;31474;45.332;10.230;2023-02-18T10:31:04;92.93;;;50.50;;
45764;SDS011;31474;45.332;10.230;2023-02-18T10:33:35;83.28;;;49.42;;
45764;SDS011;31474;45.332;10.230;2023-02-18T10:38:56;76.60;;;46.08;;
45764;SDS011;31474;45.332;10.230;2023-02-18T10:52:02;73.22;;;42.72;;
45764;SDS011;31474;45.332;10.230;2023-02-18T10:57:17;67.57;;;42.65;;
45764;SDS011;31474;45.332;10.230;2023-02-18T10:59:54;71.57;;;42.70;;
45764;SDS011;31474;45.332;10.230;2023-02-18T11:02:39;70.60;;;40.60;;
45764;SDS011;31474;45.332;10.230;2023-02-18T11:05:16;69.15;;;41.60;;
45764;SDS011;31474;45.332;10.230;2023-02-18T11:07:50;64.47;;;40.85;;
45764;SDS011;31474;45.332;10.230;2023-02-18T11:10:26;63.35;;;40.53;;
45764;SDS011;31474;45.332;10.230;2023-02-18T11:15:25;60.15;;;39.47;;
45764;SDS011;31474;45.332;10.230;2023-02-18T11:17:55;63.58;;;39.95;;
45764;SDS011;31474;45.332;10.230;2023-02-18T11:20:34;57.15;;;40.08;;
45764;SDS011;31474;45.332;10.230;2023-02-18T11:23:13;62.30;;;36.97;;
45764;SDS011;31474;45.332;10.230;2023-02-18T11:25:51;60.20;;;40.40;;
45764;SDS011;31474;45.332;10.230;2023-02-18T11:30:46;55.58;;;36.30;;
45764;SDS011;31474;45.332;10.230;2023-02-18T11:33:16;61.58;;;39.58;;
45764;SDS011;31474;45.332;10.230;2023-02-18T11:35:52;54.38;;;33.35;;
45764;SDS011;31474;45.332;10.230;2023-02-18T11:38:23;50.08;;;32.15;;
45764;SDS011;31474;45.332;10.230;2023-02-18T11:41:09;53.13;;;33.00;;
45764;SDS011;31474;45.332;10.230;2023-02-18T11:43:40;40.92;;;28.83;;
45764;SDS011;31474;45.332;10.230;2023-02-18T11:46:08;36.83;;;25.58;;
45764;SDS011;31474;45.332;10.230;2023-02-18T11:48:38;34.03;;;23.77;;
45764;SDS011;31474;45.332;10.230;2023-02-18T11:51:05;35.53;;;21.88;;
45764;SDS011;31474;45.332;10.230;2023-02-18T11:53:38;28.48;;;20.60;;
45764;SDS011;31474;45.332;10.230;2023-02-18T11:56:16;28.08;;;18.83;;
45764;SDS011;31474;45.332;10.230;2023-02-18T11:58:44;29.10;;;21.00;;
45764;SDS011;31474;45.332;10.230;2023-02-18T12:01:24;30.30;;;20.63;;
45764;SDS011;31474;45.332;10.230;2023-02-18T12:04:12;30.75;;;19.10;;
45764;SDS011;31474;45.332;10.230;2023-02-18T12:12:07;25.92;;;19.10;;
45764;SDS011;31474;45.332;10.230;2023-02-18T12:14:40;26.23;;;17.77;;
45764;SDS011;31474;45.332;10.230;2023-02-18T12:42:48;16.90;;;13.20;;
45764;SDS011;31474;45.332;10.230;2023-02-18T12:56:37;19.25;;;12.98;;
45764;SDS011;31474;45.332;10.230;2023-02-18T13:02:04;17.00;;;12.35;;
45764;SDS011;31474;45.332;10.230;2023-02-18T13:08:13;19.88;;;13.50;;
45764;SDS011;31474;45.332;10.230;2023-02-18T13:16:22;20.88;;;14.73;;
45764;SDS011;31474;45.332;10.230;2023-02-18T13:18:58;15.40;;;12.13;;
45764;SDS011;31474;45.332;10.230;2023-02-18T13:21:40;14.63;;;11.88;;
45764;SDS011;31474;45.332;10.230;2023-02-18T13:24:18;15.38;;;11.20;;
45764;SDS011;31474;45.332;10.230;2023-02-18T13:33:09;14.18;;;10.13;;
45764;SDS011;31474;45.332;10.230;2023-02-18T13:35:57;14.45;;;10.85;;
45764;SDS011;31474;45.332;10.230;2023-02-18T13:41:11;19.17;;;11.20;;
45764;SDS011;31474;45.332;10.230;2023-02-18T13:43:36;16.15;;;11.00;;
45764;SDS011;31474;45.332;10.230;2023-02-18T13:51:39;14.07;;;11.20;;
45764;SDS011;31474;45.332;10.230;2023-02-18T13:56:42;15.60;;;11.23;;
45764;SDS011;31474;45.332;10.230;2023-02-18T13:59:21;15.65;;;10.65;;
45764;SDS011;31474;45.332;10.230;2023-02-18T14:09:57;13.95;;;10.55;;
45764;SDS011;31474;45.332;10.230;2023-02-18T14:15:45;13.77;;;10.20;;
45764;SDS011;31474;45.332;10.230;2023-02-18T14:20:48;14.88;;;10.57;;
45764;SDS011;31474;45.332;10.230;2023-02-18T14:25:52;16.77;;;11.77;;
45764;SDS011;31474;45.332;10.230;2023-02-18T14:31:03;17.05;;;12.10;;
45764;SDS011;31474;45.332;10.230;2023-02-18T14:33:35;15.88;;;11.07;;
45764;SDS011;31474;45.332;10.230;2023-02-18T14:36:18;17.05;;;12.00;;
45764;SDS011;31474;45.332;10.230;2023-02-18T14:39:02;13.63;;;10.07;;
45764;SDS011;31474;45.332;10.230;2023-02-18T14:47:14;17.00;;;10.50;;
45764;SDS011;31474;45.332;10.230;2023-02-18T14:49:51;18.33;;;10.32;;
45764;SDS011;31474;45.332;10.230;2023-02-18T14:52:38;17.70;;;11.88;;
45764;SDS011;31474;45.332;10.230;2023-02-18T14:55:06;16.55;;;11.75;;
45764;SDS011;31474;45.332;10.230;2023-02-18T14:57:40;16.02;;;10.93;;
45764;SDS011;31474;45.332;10.230;2023-02-18T15:00:14;14.98;;;11.77;;
45764;SDS011;31474;45.332;10.230;2023-02-18T15:02:53;15.93;;;10.95;;
45764;SDS011;31474;45.332;10.230;2023-02-18T15:05:20;14.35;;;10.40;;
45764;SDS011;31474;45.332;10.230;2023-02-18T15:08:01;13.82;;;11.30;;
45764;SDS011;31474;45.332;10.230;2023-02-18T15:10:47;14.55;;;11.43;;
45764;SDS011;31474;45.332;10.230;2023-02-18T15:13:29;13.77;;;10.40;;
45764;SDS011;31474;45.332;10.230;2023-02-18T15:16:01;16.17;;;11.45;;
45764;SDS011;31474;45.332;10.230;2023-02-18T15:18:30;15.90;;;11.55;;
45764;SDS011;31474;45.332;10.230;2023-02-18T15:21:00;24.92;;;16.90;;
45764;SDS011;31474;45.332;10.230;2023-02-18T15:23:27;19.00;;;13.75;;
45764;SDS011;31474;45.332;10.230;2023-02-18T15:25:53;16.90;;;12.82;;
45764;SDS011;31474;45.332;10.230;2023-02-18T15:28:20;15.95;;;12.68;;
45764;SDS011;31474;45.332;10.230;2023-02-18T15:33:20;13.63;;;10.02;;
45764;SDS011;31474;45.332;10.230;2023-02-18T15:35:46;13.40;;;11.20;;
45764;SDS011;31474;45.332;10.230;2023-02-18T15:38:16;13.45;;;10.43;;
45764;SDS011;31474;45.332;10.230;2023-02-18T15:40:43;12.90;;;10.02;;
45764;SDS011;31474;45.332;10.230;2023-02-18T15:43:18;15.48;;;11.40;;
45764;SDS011;31474;45.332;10.230;2023-02-18T15:45:47;15.38;;;10.73;;
45764;SDS011;31474;45.332;10.230;2023-02-18T15:48:20;15.43;;;10.95;;
45764;SDS011;31474;45.332;10.230;2023-02-18T15:50:57;16.45;;;12.65;;
45764;SDS011;31474;45.332;10.230;2023-02-18T15:53:28;13.63;;;9.93;;
45764;SDS011;31474;45.332;10.230;2023-02-18T15:55:54;11.57;;;9.68;;
45764;SDS011;31474;45.332;10.230;2023-02-18T16:01:05;17.45;;;11.63;;
45764;SDS011;31474;45.332;10.230;2023-02-18T16:03:44;16.30;;;10.13;;
45764;SDS011;31474;45.332;10.230;2023-02-18T16:08:45;16.35;;;12.20;;
45764;SDS011;31474;45.332;10.230;2023-02-18T16:11:26;14.95;;;10.85;;
45764;SDS011;31474;45.332;10.230;2023-02-18T16:13:56;19.38;;;12.02;;
45764;SDS011;31474;45.332;10.230;2023-02-18T16:16:32;18.02;;;12.57;;
45764;SDS011;31474;45.332;10.230;2023-02-18T16:18:59;16.27;;;10.55;;
45764;SDS011;31474;45.332;10.230;2023-02-18T16:21:30;15.23;;;12.25;;
45764;SDS011;31474;45.332;10.230;2023-02-18T16:23:59;15.47;;;10.43;;
45764;SDS011;31474;45.332;10.230;2023-02-18T16:29:14;15.38;;;10.88;;
45764;SDS011;31474;45.332;10.230;2023-02-18T16:31:45;15.65;;;10.73;;
45764;SDS011;31474;45.332;10.230;2023-02-18T16:34:11;15.80;;;11.07;;
45764;SDS011;31474;45.332;10.230;2023-02-18T16:36:37;14.63;;;11.38;;
45764;SDS011;31474;45.332;10.230;2023-02-18T16:39:22;19.33;;;12.75;;
45764;SDS011;31474;45.332;10.230;2023-02-18T16:41:48;14.20;;;10.35;;
45764;SDS011;31474;45.332;10.230;2023-02-18T16:44:14;20.65;;;11.45;;
45764;SDS011;31474;45.332;10.230;2023-02-18T16:46:40;15.65;;;9.98;;
45764;SDS011;31474;45.332;10.230;2023-02-18T16:49:07;15.65;;;10.15;;
45764;SDS011;31474;45.332;10.230;2023-02-18T16:51:36;15.02;;;11.27;;
45764;SDS011;31474;45.332;10.230;2023-02-18T16:54:01;18.60;;;10.00;;
45764;SDS011;31474;45.332;10.230;2023-02-18T16:56:29;14.90;;;11.30;;
45764;SDS011;31474;45.332;10.230;2023-02-18T16:58:56;16.08;;;10.65;;
45764;SDS011;31474;45.332;10.230;2023-02-18T17:01:37;18.02;;;12.60;;
45764;SDS011;31474;45.332;10.230;2023-02-18T17:04:11;18.67;;;12.63;;
45764;SDS011;31474;45.332;10.230;2023-02-18T17:06:38;18.55;;;13.00;;
45764;SDS011;31474;45.332;10.230;2023-02-18T17:09:18;20.75;;;12.73;;
45764;SDS011;31474;45.332;10.230;2023-02-18T17:11:46;17.35;;;11.63;;